sensor_id;sensor_type;location;lat;lon;timestamp;P1;durP1;ratioP1;P2;durP2;ratioP2
3941;SDS011;1985;48.592;8.850;2023-04-30T00:02:19;14.65;;;5.60;;
3941;SDS011;1985;48.592;8.850;2023-04-30T00:04:45;14.97;;;5.67;;
3941;SDS011;1985;48.592;8.850;2023-04-30T00:07:10;14.63;;;5.40;;
3941;SDS011;1985;48.592;8.850;2023-04-30T00:09:36;14.13;;;5.60;;
3941;SDS011;1985;48.592;8.850;2023-04-30T00:12:02;16.30;;;5.70;;
3941;SDS011;1985;48.592;8.850;2023-04-30T00:14:27;14.03;;;5.60;;
3941;SDS011;1985;48.592;8.850;2023-04-30T00:16:53;14.88;;;6.10;;
3941;SDS011;1985;48.592;8.850;2023-04-30T00:19:19;14.20;;;5.20;;
3941;SDS011;1985;48.592;8.850;2023-04-30T00:21:44;14.20;;;4.88;;
3941;SDS011;1985;48.592;8.850;2023-04-30T00:24:10;12.40;;;4.60;;
3941;SDS011;1985;48.592;8.850;2023-04-30T00:26:36;13.77;;;5.00;;
3941;SDS011;1985;48.592;8.850;2023-04-30T00:29:01;14.27;;;5.18;;
3941;SDS011;1985;48.592;8.850;2023-04-30T00:31:27;13.07;;;5.20;;
3941;SDS011;1985;48.592;8.850;2023-04-30T00:33:52;16.67;;;5.53;;
3941;SDS011;1985;48.592;8.850;2023-04-30T00:36:18;15.57;;;4.90;;
3941;SDS011;1985;48.592;8.850;2023-04-30T00:38:44;14.63;;;4.80;;
3941;SDS011;1985;48.592;8.850;2023-04-30T00:41:09;14.05;;;4.63;;
3941;SDS011;1985;48.592;8.850;2023-04-30T00:43:35;15.33;;;5.60;;
3941;SDS011;1985;48.592;8.850;2023-04-30T00:46:00;13.23;;;4.40;;
3941;SDS011;1985;48.592;8.850;2023-04-30T00:48:27;13.15;;;4.47;;
3941;SDS011;1985;48.592;8.850;2023-04-30T00:50:53;12.80;;;4.50;;
3941;SDS011;1985;48.592;8.850;2023-04-30T00:53:19;12.68;;;4.80;;
3941;SDS011;1985;48.592;8.850;2023-04-30T00:55:45;13.02;;;4.95;;
3941;SDS011;1985;48.592;8.850;2023-04-30T00:58:12;13.02;;;4.70;;
3941;SDS011;1985;48.592;8.850;2023-04-30T01:00:37;17.50;;;5.20;;
3941;SDS011;1985;48.592;8.850;2023-04-30T01:03:07;13.50;;;5.20;;
3941;SDS011;1985;48.592;8.850;2023-04-30T01:05:32;13.57;;;4.32;;
3941;SDS011;1985;48.592;8.850;2023-04-30T01:07:58;12.97;;;4.90;;
3941;SDS011;1985;48.592;8.850;2023-04-30T01:10:26;12.88;;;5.10;;
3941;SDS011;1985;48.592;8.850;2023-04-30T01:13:08;12.23;;;4.65;;
3941;SDS011;1985;48.592;8.850;2023-04-30T01:15:44;14.80;;;5.28;;
3941;SDS011;1985;48.592;8.850;2023-04-30T01:18:22;15.30;;;5.10;;
3941;SDS011;1985;48.592;8.850;2023-04-30T01:20:53;15.60;;;4.97;;
3941;SDS011;1985;48.592;8.850;2023-04-30T01:29:11;12.57;;;4.50;;
3941;SDS011;1985;48.592;8.850;2023-04-30T01:31:42;16.02;;;5.15;;
3941;SDS011;1985;48.592;8.850;2023-04-30T01:34:08;12.05;;;4.45;;
3941;SDS011;1985;48.592;8.850;2023-04-30T01:42:07;13.60;;;4.80;;
3941;SDS011;1985;48.592;8.850;2023-04-30T01:53:05;11.43;;;4.18;;
3941;SDS011;1985;48.592;8.850;2023-04-30T01:55:46;13.02;;;4.93;;
3941;SDS011;1985;48.592;8.850;2023-04-30T01:58:20;12.90;;;5.00;;
3941;SDS011;1985;48.592;8.850;2023-04-30T02:00:47;18.35;;;5.60;;
3941;SDS011;1985;48.592;8.850;2023-04-30T02:03:13;12.07;;;4.53;;
3941;SDS011;1985;48.592;8.850;2023-04-30T02:05:39;16.42;;;4.18;;
3941;SDS011;1985;48.592;8.850;2023-04-30T02:08:04;13.93;;;4.70;;
3941;SDS011;1985;48.592;8.850;2023-04-30T02:10:30;12.70;;;4.32;;
3941;SDS011;1985;48.592;8.850;2023-04-30T02:12:56;12.67;;;4.63;;
3941;SDS011;1985;48.592;8.850;2023-04-30T02:15:21;13.00;;;4.70;;
3941;SDS011;1985;48.592;8.850;2023-04-30T02:17:47;14.17;;;4.80;;
3941;SDS011;1985;48.592;8.850;2023-04-30T02:20:13;14.30;;;5.40;;
3941;SDS011;1985;48.592;8.850;2023-04-30T02:22:38;12.87;;;5.07;;
3941;SDS011;1985;48.592;8.850;2023-04-30T02:25:04;14.77;;;4.70;;
3941;SDS011;1985;48.592;8.850;2023-04-30T02:27:30;12.27;;;4.32;;
3941;SDS011;1985;48.592;8.850;2023-04-30T02:29:57;13.75;;;4.72;;
3941;SDS011;1985;48.592;8.850;2023-04-30T02:32:23;12.82;;;4.75;;
3941;SDS011;1985;48.592;8.850;2023-04-30T02:34:49;13.65;;;5.22;;
3941;SDS011;1985;48.592;8.850;2023-04-30T02:37:15;13.70;;;5.27;;
3941;SDS011;1985;48.592;8.850;2023-04-30T02:39:41;13.05;;;5.22;;
3941;SDS011;1985;48.592;8.850;2023-04-30T02:42:07;16.98;;;5.28;;
3941;SDS011;1985;48.592;8.850;2023-04-30T02:44:33;14.05;;;5.50;;
3941;SDS011;1985;48.592;8.850;2023-04-30T02:46:59;14.18;;;5.38;;
3941;SDS011;1985;48.592;8.850;2023-04-30T02:49:26;14.27;;;5.13;;
3941;SDS011;1985;48.592;8.850;2023-04-30T02:51:52;14.90;;;5.53;;
3941;SDS011;1985;48.592;8.850;2023-04-30T02:54:18;13.18;;;5.28;;
3941;SDS011;1985;48.592;8.850;2023-04-30T02:56:44;13.85;;;5.53;;
3941;SDS011;1985;48.592;8.850;2023-04-30T02:59:11;13.98;;;5.28;;
3941;SDS011;1985;48.592;8.850;2023-04-30T03:01:37;15.52;;;5.68;;
3941;SDS011;1985;48.592;8.850;2023-04-30T03:04:02;14.37;;;5.87;;
3941;SDS011;1985;48.592;8.850;2023-04-30T03:06:29;14.57;;;5.80;;
3941;SDS011;1985;48.592;8.850;2023-04-30T03:08:55;15.90;;;5.60;;
3941;SDS011;1985;48.592;8.850;2023-04-30T03:11:21;14.93;;;5.78;;
3941;SDS011;1985;48.592;8.850;2023-04-30T03:13:47;16.50;;;5.70;;
3941;SDS011;1985;48.592;8.850;2023-04-30T03:16:16;15.65;;;6.63;;
3941;SDS011;1985;48.592;8.850;2023-04-30T03:18:43;14.60;;;6.18;;
3941;SDS011;1985;48.592;8.850;2023-04-30T03:21:09;14.73;;;5.70;;
3941;SDS011;1985;48.592;8.850;2023-04-30T03:23:35;16.30;;;6.23;;
3941;SDS011;1985;48.592;8.850;2023-04-30T03:26:00;14.95;;;6.10;;
3941;SDS011;1985;48.592;8.850;2023-04-30T03:28:26;15.87;;;6.10;;
3941;SDS011;1985;48.592;8.850;2023-04-30T03:30:52;17.27;;;6.30;;
3941;SDS011;1985;48.592;8.850;2023-04-30T03:33:17;15.07;;;6.27;;
3941;SDS011;1985;48.592;8.850;2023-04-30T03:35:43;15.82;;;6.20;;
3941;SDS011;1985;48.592;8.850;2023-04-30T03:38:09;15.93;;;6.30;;
3941;SDS011;1985;48.592;8.850;2023-04-30T03:40:35;14.80;;;6.03;;
3941;SDS011;1985;48.592;8.850;2023-04-30T03:43:00;16.15;;;6.40;;
3941;SDS011;1985;48.592;8.850;2023-04-30T03:45:26;15.20;;;6.32;;
3941;SDS011;1985;48.592;8.850;2023-04-30T03:47:51;16.43;;;6.83;;
3941;SDS011;1985;48.592;8.850;2023-04-30T03:50:17;14.45;;;5.95;;
3941;SDS011;1985;48.592;8.850;2023-04-30T03:52:43;17.43;;;7.30;;
3941;SDS011;1985;48.592;8.850;2023-04-30T03:55:09;17.05;;;7.32;;
3941;SDS011;1985;48.592;8.850;2023-04-30T03:57:35;16.65;;;7.07;;
3941;SDS011;1985;48.592;8.850;2023-04-30T04:00:02;15.52;;;6.80;;
3941;SDS011;1985;48.592;8.850;2023-04-30T04:02:34;16.77;;;7.22;;
3941;SDS011;1985;48.592;8.850;2023-04-30T04:05:01;18.73;;;7.25;;
3941;SDS011;1985;48.592;8.850;2023-04-30T04:07:27;16.00;;;6.80;;
3941;SDS011;1985;48.592;8.850;2023-04-30T04:09:53;17.07;;;6.90;;
3941;SDS011;1985;48.592;8.850;2023-04-30T04:12:19;18.55;;;7.78;;
3941;SDS011;1985;48.592;8.850;2023-04-30T04:14:45;20.75;;;7.07;;
3941;SDS011;1985;48.592;8.850;2023-04-30T04:17:11;17.50;;;7.20;;
3941;SDS011;1985;48.592;8.850;2023-04-30T04:19:36;17.20;;;7.50;;
3941;SDS011;1985;48.592;8.850;2023-04-30T04:22:02;15.68;;;6.80;;
3941;SDS011;1985;48.592;8.850;2023-04-30T04:24:28;18.17;;;7.13;;
3941;SDS011;1985;48.592;8.850;2023-04-30T04:26:54;17.77;;;7.10;;
3941;SDS011;1985;48.592;8.850;2023-04-30T04:29:20;18.40;;;7.73;;
3941;SDS011;1985;48.592;8.850;2023-04-30T04:31:45;17.83;;;7.85;;
3941;SDS011;1985;48.592;8.850;2023-04-30T04:34:13;19.17;;;8.13;;
3941;SDS011;1985;48.592;8.850;2023-04-30T04:36:38;18.20;;;7.63;;
3941;SDS011;1985;48.592;8.850;2023-04-30T04:39:04;17.30;;;6.78;;
3941;SDS011;1985;48.592;8.850;2023-04-30T04:41:31;16.80;;;6.60;;
3941;SDS011;1985;48.592;8.850;2023-04-30T04:44:00;17.85;;;7.68;;
3941;SDS011;1985;48.592;8.850;2023-04-30T04:46:27;21.08;;;7.75;;
3941;SDS011;1985;48.592;8.850;2023-04-30T04:48:54;16.55;;;7.60;;
3941;SDS011;1985;48.592;8.850;2023-04-30T04:51:19;16.10;;;7.57;;
3941;SDS011;1985;48.592;8.850;2023-04-30T04:53:45;17.38;;;7.10;;
3941;SDS011;1985;48.592;8.850;2023-04-30T04:56:11;16.03;;;7.00;;
3941;SDS011;1985;48.592;8.850;2023-04-30T04:58:37;17.08;;;7.80;;
3941;SDS011;1985;48.592;8.850;2023-04-30T05:01:02;17.77;;;7.60;;
3941;SDS011;1985;48.592;8.850;2023-04-30T05:03:32;16.10;;;6.60;;
3941;SDS011;1985;48.592;8.850;2023-04-30T05:06:00;18.33;;;7.28;;
3941;SDS011;1985;48.592;8.850;2023-04-30T05:08:26;20.80;;;7.63;;
3941;SDS011;1985;48.592;8.850;2023-04-30T05:10:52;17.93;;;6.80;;
3941;SDS011;1985;48.592;8.850;2023-04-30T05:13:18;18.45;;;7.40;;
3941;SDS011;1985;48.592;8.850;2023-04-30T05:15:43;16.75;;;6.82;;
3941;SDS011;1985;48.592;8.850;2023-04-30T05:18:09;17.08;;;7.10;;
3941;SDS011;1985;48.592;8.850;2023-04-30T05:20:35;16.00;;;6.60;;
3941;SDS011;1985;48.592;8.850;2023-04-30T05:23:00;19.00;;;7.45;;
3941;SDS011;1985;48.592;8.850;2023-04-30T05:25:27;16.77;;;6.90;;
3941;SDS011;1985;48.592;8.850;2023-04-30T05:27:53;17.60;;;6.88;;
3941;SDS011;1985;48.592;8.850;2023-04-30T05:30:20;19.23;;;7.80;;
3941;SDS011;1985;48.592;8.850;2023-04-30T05:32:46;17.05;;;7.50;;
3941;SDS011;1985;48.592;8.850;2023-04-30T05:35:15;17.43;;;7.67;;
3941;SDS011;1985;48.592;8.850;2023-04-30T05:37:41;19.80;;;7.75;;
3941;SDS011;1985;48.592;8.850;2023-04-30T05:40:07;16.67;;;7.03;;
3941;SDS011;1985;48.592;8.850;2023-04-30T05:42:33;16.45;;;6.78;;
3941;SDS011;1985;48.592;8.850;2023-04-30T05:44:59;17.55;;;6.75;;
3941;SDS011;1985;48.592;8.850;2023-04-30T05:47:25;16.63;;;7.72;;
3941;SDS011;1985;48.592;8.850;2023-04-30T05:49:51;19.00;;;7.70;;
3941;SDS011;1985;48.592;8.850;2023-04-30T05:52:16;16.30;;;6.70;;
3941;SDS011;1985;48.592;8.850;2023-04-30T05:54:42;16.70;;;6.87;;
3941;SDS011;1985;48.592;8.850;2023-04-30T05:57:08;15.20;;;6.15;;
3941;SDS011;1985;48.592;8.850;2023-04-30T05:59:33;15.70;;;7.20;;
3941;SDS011;1985;48.592;8.850;2023-04-30T06:01:59;18.38;;;7.68;;
3941;SDS011;1985;48.592;8.850;2023-04-30T06:04:25;19.30;;;7.90;;
3941;SDS011;1985;48.592;8.850;2023-04-30T06:06:50;17.27;;;8.07;;
3941;SDS011;1985;48.592;8.850;2023-04-30T06:09:16;16.05;;;7.25;;
3941;SDS011;1985;48.592;8.850;2023-04-30T06:11:41;17.07;;;7.50;;
3941;SDS011;1985;48.592;8.850;2023-04-30T06:14:09;16.55;;;7.63;;
3941;SDS011;1985;48.592;8.850;2023-04-30T06:16:35;16.90;;;7.53;;
3941;SDS011;1985;48.592;8.850;2023-04-30T06:19:00;16.30;;;7.40;;
3941;SDS011;1985;48.592;8.850;2023-04-30T06:21:26;16.00;;;7.63;;
3941;SDS011;1985;48.592;8.850;2023-04-30T06:23:52;16.00;;;6.80;;
3941;SDS011;1985;48.592;8.850;2023-04-30T06:26:18;15.13;;;6.87;;
3941;SDS011;1985;48.592;8.850;2023-04-30T06:28:44;16.88;;;6.88;;
3941;SDS011;1985;48.592;8.850;2023-04-30T06:31:10;15.90;;;6.70;;
3941;SDS011;1985;48.592;8.850;2023-04-30T06:33:36;16.23;;;6.80;;
3941;SDS011;1985;48.592;8.850;2023-04-30T06:36:02;16.25;;;7.10;;
3941;SDS011;1985;48.592;8.850;2023-04-30T06:38:28;15.90;;;7.27;;
3941;SDS011;1985;48.592;8.850;2023-04-30T06:40:53;17.35;;;6.70;;
3941;SDS011;1985;48.592;8.850;2023-04-30T06:43:19;15.93;;;7.37;;
3941;SDS011;1985;48.592;8.850;2023-04-30T06:45:45;16.23;;;6.90;;
3941;SDS011;1985;48.592;8.850;2023-04-30T06:48:10;18.93;;;6.97;;
3941;SDS011;1985;48.592;8.850;2023-04-30T06:50:36;16.80;;;7.07;;
3941;SDS011;1985;48.592;8.850;2023-04-30T06:53:08;17.07;;;7.30;;
3941;SDS011;1985;48.592;8.850;2023-04-30T06:55:37;15.45;;;6.35;;
3941;SDS011;1985;48.592;8.850;2023-04-30T06:58:03;15.70;;;6.93;;
3941;SDS011;1985;48.592;8.850;2023-04-30T07:00:32;16.23;;;6.95;;
3941;SDS011;1985;48.592;8.850;2023-04-30T07:03:00;14.60;;;6.72;;
3941;SDS011;1985;48.592;8.850;2023-04-30T07:05:28;17.20;;;7.10;;
3941;SDS011;1985;48.592;8.850;2023-04-30T07:07:54;15.20;;;6.85;;
3941;SDS011;1985;48.592;8.850;2023-04-30T07:10:20;15.63;;;6.63;;
3941;SDS011;1985;48.592;8.850;2023-04-30T07:12:46;15.00;;;6.80;;
3941;SDS011;1985;48.592;8.850;2023-04-30T07:15:12;15.75;;;6.40;;
3941;SDS011;1985;48.592;8.850;2023-04-30T07:17:38;15.53;;;6.77;;
3941;SDS011;1985;48.592;8.850;2023-04-30T07:20:05;16.92;;;6.80;;
3941;SDS011;1985;48.592;8.850;2023-04-30T07:22:32;16.00;;;7.03;;
3941;SDS011;1985;48.592;8.850;2023-04-30T07:24:58;17.65;;;7.03;;
3941;SDS011;1985;48.592;8.850;2023-04-30T07:27:24;18.77;;;6.95;;
3941;SDS011;1985;48.592;8.850;2023-04-30T07:29:53;15.77;;;6.45;;
3941;SDS011;1985;48.592;8.850;2023-04-30T07:32:19;15.20;;;6.30;;
3941;SDS011;1985;48.592;8.850;2023-04-30T07:34:45;14.07;;;6.03;;
3941;SDS011;1985;48.592;8.850;2023-04-30T07:37:12;15.98;;;6.40;;
3941;SDS011;1985;48.592;8.850;2023-04-30T07:39:38;14.95;;;5.97;;
3941;SDS011;1985;48.592;8.850;2023-04-30T07:42:03;17.00;;;6.83;;
3941;SDS011;1985;48.592;8.850;2023-04-30T07:44:30;16.23;;;6.50;;
3941;SDS011;1985;48.592;8.850;2023-04-30T07:46:55;14.63;;;6.10;;
3941;SDS011;1985;48.592;8.850;2023-04-30T07:49:21;14.03;;;5.50;;
3941;SDS011;1985;48.592;8.850;2023-04-30T07:51:47;14.63;;;6.07;;
3941;SDS011;1985;48.592;8.850;2023-04-30T07:54:13;14.70;;;5.73;;
3941;SDS011;1985;48.592;8.850;2023-04-30T07:56:38;13.90;;;5.77;;
3941;SDS011;1985;48.592;8.850;2023-04-30T07:59:04;15.90;;;5.80;;
3941;SDS011;1985;48.592;8.850;2023-04-30T08:01:30;13.40;;;5.57;;
3941;SDS011;1985;48.592;8.850;2023-04-30T08:03:55;14.43;;;5.70;;
3941;SDS011;1985;48.592;8.850;2023-04-30T08:06:21;14.67;;;5.57;;
3941;SDS011;1985;48.592;8.850;2023-04-30T08:08:47;13.60;;;5.70;;
3941;SDS011;1985;48.592;8.850;2023-04-30T08:11:13;14.20;;;5.03;;
3941;SDS011;1985;48.592;8.850;2023-04-30T08:13:40;13.93;;;4.35;;
3941;SDS011;1985;48.592;8.850;2023-04-30T08:16:06;11.30;;;3.70;;
3941;SDS011;1985;48.592;8.850;2023-04-30T08:18:32;14.27;;;4.43;;
3941;SDS011;1985;48.592;8.850;2023-04-30T08:20:58;11.83;;;4.33;;
3941;SDS011;1985;48.592;8.850;2023-04-30T08:23:24;11.60;;;4.03;;
3941;SDS011;1985;48.592;8.850;2023-04-30T08:25:50;11.77;;;4.20;;
3941;SDS011;1985;48.592;8.850;2023-04-30T08:28:16;11.70;;;4.03;;
3941;SDS011;1985;48.592;8.850;2023-04-30T08:30:42;11.57;;;3.75;;
3941;SDS011;1985;48.592;8.850;2023-04-30T08:33:08;13.27;;;3.83;;
3941;SDS011;1985;48.592;8.850;2023-04-30T08:35:34;11.27;;;3.90;;
3941;SDS011;1985;48.592;8.850;2023-04-30T08:38:00;12.00;;;4.00;;
3941;SDS011;1985;48.592;8.850;2023-04-30T08:40:25;11.80;;;3.60;;
3941;SDS011;1985;48.592;8.850;2023-04-30T08:43:04;11.10;;;3.95;;
3941;SDS011;1985;48.592;8.850;2023-04-30T08:45:36;12.40;;;4.35;;
3941;SDS011;1985;48.592;8.850;2023-04-30T08:48:02;10.90;;;3.83;;
3941;SDS011;1985;48.592;8.850;2023-04-30T08:50:29;11.88;;;4.05;;
3941;SDS011;1985;48.592;8.850;2023-04-30T08:52:56;10.82;;;3.65;;
3941;SDS011;1985;48.592;8.850;2023-04-30T08:55:23;12.45;;;3.80;;
3941;SDS011;1985;48.592;8.850;2023-04-30T08:57:51;11.20;;;3.17;;
3941;SDS011;1985;48.592;8.850;2023-04-30T09:00:16;14.02;;;3.88;;
3941;SDS011;1985;48.592;8.850;2023-04-30T09:02:42;11.27;;;3.00;;
3941;SDS011;1985;48.592;8.850;2023-04-30T09:05:12;9.43;;;2.70;;
3941;SDS011;1985;48.592;8.850;2023-04-30T09:07:39;11.20;;;3.77;;
3941;SDS011;1985;48.592;8.850;2023-04-30T09:10:13;10.00;;;3.25;;
3941;SDS011;1985;48.592;8.850;2023-04-30T09:12:44;10.68;;;3.60;;
3941;SDS011;1985;48.592;8.850;2023-04-30T09:15:23;10.80;;;3.60;;
3941;SDS011;1985;48.592;8.850;2023-04-30T09:17:48;14.10;;;4.40;;
3941;SDS011;1985;48.592;8.850;2023-04-30T09:20:14;11.55;;;3.88;;
3941;SDS011;1985;48.592;8.850;2023-04-30T09:22:40;11.20;;;3.73;;
3941;SDS011;1985;48.592;8.850;2023-04-30T09:25:07;12.40;;;3.33;;
3941;SDS011;1985;48.592;8.850;2023-04-30T09:27:33;10.82;;;3.63;;
3941;SDS011;1985;48.592;8.850;2023-04-30T09:29:59;10.10;;;3.00;;
3941;SDS011;1985;48.592;8.850;2023-04-30T09:32:25;10.60;;;2.90;;
3941;SDS011;1985;48.592;8.850;2023-04-30T09:34:51;12.18;;;3.45;;
3941;SDS011;1985;48.592;8.850;2023-04-30T09:37:17;12.13;;;3.97;;
3941;SDS011;1985;48.592;8.850;2023-04-30T09:39:49;13.55;;;4.57;;
3941;SDS011;1985;48.592;8.850;2023-04-30T09:42:16;11.95;;;3.40;;
3941;SDS011;1985;48.592;8.850;2023-04-30T09:44:45;12.27;;;3.50;;
3941;SDS011;1985;48.592;8.850;2023-04-30T09:47:18;10.40;;;3.28;;
3941;SDS011;1985;48.592;8.850;2023-04-30T09:49:48;11.20;;;3.22;;
3941;SDS011;1985;48.592;8.850;2023-04-30T09:52:18;9.80;;;3.08;;
3941;SDS011;1985;48.592;8.850;2023-04-30T09:54:45;12.40;;;3.50;;
3941;SDS011;1985;48.592;8.850;2023-04-30T09:57:12;10.93;;;3.42;;
3941;SDS011;1985;48.592;8.850;2023-04-30T09:59:42;11.30;;;3.75;;
3941;SDS011;1985;48.592;8.850;2023-04-30T10:02:09;10.65;;;2.83;;
3941;SDS011;1985;48.592;8.850;2023-04-30T10:04:37;11.32;;;3.40;;
3941;SDS011;1985;48.592;8.850;2023-04-30T10:07:15;10.30;;;3.00;;
3941;SDS011;1985;48.592;8.850;2023-04-30T10:09:58;10.05;;;2.60;;
3941;SDS011;1985;48.592;8.850;2023-04-30T10:15:12;11.75;;;2.83;;
3941;SDS011;1985;48.592;8.850;2023-04-30T10:17:41;12.20;;;3.20;;
3941;SDS011;1985;48.592;8.850;2023-04-30T10:20:14;11.10;;;3.30;;
3941;SDS011;1985;48.592;8.850;2023-04-30T10:22:41;10.77;;;3.30;;
3941;SDS011;1985;48.592;8.850;2023-04-30T10:25:07;13.63;;;3.55;;
3941;SDS011;1985;48.592;8.850;2023-04-30T10:27:37;12.30;;;3.80;;
3941;SDS011;1985;48.592;8.850;2023-04-30T10:30:04;12.63;;;3.13;;
3941;SDS011;1985;48.592;8.850;2023-04-30T10:32:34;11.77;;;3.97;;
3941;SDS011;1985;48.592;8.850;2023-04-30T10:37:38;9.63;;;2.80;;
3941;SDS011;1985;48.592;8.850;2023-04-30T10:40:10;10.65;;;3.08;;
3941;SDS011;1985;48.592;8.850;2023-04-30T10:42:36;10.68;;;3.13;;
3941;SDS011;1985;48.592;8.850;2023-04-30T10:45:02;11.05;;;3.45;;
3941;SDS011;1985;48.592;8.850;2023-04-30T10:47:28;9.82;;;2.97;;
3941;SDS011;1985;48.592;8.850;2023-04-30T10:50:03;11.23;;;3.03;;
3941;SDS011;1985;48.592;8.850;2023-04-30T10:52:32;10.35;;;2.90;;
3941;SDS011;1985;48.592;8.850;2023-04-30T10:54:58;10.77;;;2.65;;
3941;SDS011;1985;48.592;8.850;2023-04-30T10:57:28;14.90;;;3.17;;
3941;SDS011;1985;48.592;8.850;2023-04-30T11:02:43;11.20;;;3.10;;
3941;SDS011;1985;48.592;8.850;2023-04-30T11:05:11;9.93;;;2.80;;
3941;SDS011;1985;48.592;8.850;2023-04-30T11:07:51;10.10;;;2.70;;
3941;SDS011;1985;48.592;8.850;2023-04-30T11:10:22;9.70;;;2.65;;
3941;SDS011;1985;48.592;8.850;2023-04-30T11:12:50;10.70;;;2.67;;
3941;SDS011;1985;48.592;8.850;2023-04-30T11:15:18;9.98;;;2.70;;
3941;SDS011;1985;48.592;8.850;2023-04-30T11:17:46;9.80;;;2.97;;
3941;SDS011;1985;48.592;8.850;2023-04-30T11:20:13;9.80;;;2.83;;
3941;SDS011;1985;48.592;8.850;2023-04-30T11:22:44;9.98;;;3.00;;
3941;SDS011;1985;48.592;8.850;2023-04-30T11:25:10;13.13;;;3.03;;
3941;SDS011;1985;48.592;8.850;2023-04-30T11:27:38;10.55;;;2.80;;
3941;SDS011;1985;48.592;8.850;2023-04-30T11:30:16;13.20;;;3.20;;
3941;SDS011;1985;48.592;8.850;2023-04-30T11:32:43;9.23;;;2.75;;
3941;SDS011;1985;48.592;8.850;2023-04-30T11:35:11;9.65;;;2.88;;
3941;SDS011;1985;48.592;8.850;2023-04-30T11:40:06;9.43;;;2.50;;
3941;SDS011;1985;48.592;8.850;2023-04-30T11:42:35;11.13;;;2.85;;
3941;SDS011;1985;48.592;8.850;2023-04-30T11:45:07;10.05;;;2.80;;
3941;SDS011;1985;48.592;8.850;2023-04-30T11:47:53;10.00;;;2.90;;
3941;SDS011;1985;48.592;8.850;2023-04-30T11:50:19;10.73;;;2.35;;
3941;SDS011;1985;48.592;8.850;2023-04-30T11:52:52;10.20;;;2.70;;
3941;SDS011;1985;48.592;8.850;2023-04-30T11:55:19;9.90;;;2.90;;
3941;SDS011;1985;48.592;8.850;2023-04-30T11:57:47;10.10;;;2.72;;
3941;SDS011;1985;48.592;8.850;2023-04-30T12:00:15;9.98;;;2.70;;
3941;SDS011;1985;48.592;8.850;2023-04-30T12:02:42;12.65;;;3.08;;
3941;SDS011;1985;48.592;8.850;2023-04-30T12:05:20;9.57;;;3.00;;
3941;SDS011;1985;48.592;8.850;2023-04-30T12:07:50;9.70;;;2.50;;
3941;SDS011;1985;48.592;8.850;2023-04-30T12:10:20;13.00;;;2.80;;
3941;SDS011;1985;48.592;8.850;2023-04-30T12:12:47;11.17;;;2.77;;
3941;SDS011;1985;48.592;8.850;2023-04-30T12:15:14;10.27;;;2.90;;
3941;SDS011;1985;48.592;8.850;2023-04-30T12:17:46;9.88;;;2.60;;
3941;SDS011;1985;48.592;8.850;2023-04-30T12:20:13;12.30;;;2.50;;
3941;SDS011;1985;48.592;8.850;2023-04-30T12:22:40;9.18;;;2.40;;
3941;SDS011;1985;48.592;8.850;2023-04-30T12:25:07;10.15;;;2.80;;
3941;SDS011;1985;48.592;8.850;2023-04-30T12:27:39;12.00;;;2.90;;
3941;SDS011;1985;48.592;8.850;2023-04-30T12:30:05;9.45;;;2.75;;
3941;SDS011;1985;48.592;8.850;2023-04-30T12:32:41;10.05;;;2.60;;
3941;SDS011;1985;48.592;8.850;2023-04-30T12:35:11;9.80;;;2.90;;
3941;SDS011;1985;48.592;8.850;2023-04-30T12:37:42;9.52;;;2.80;;
3941;SDS011;1985;48.592;8.850;2023-04-30T12:40:10;11.60;;;2.67;;
3941;SDS011;1985;48.592;8.850;2023-04-30T12:42:36;10.70;;;3.28;;
3941;SDS011;1985;48.592;8.850;2023-04-30T12:45:02;10.75;;;3.00;;
3941;SDS011;1985;48.592;8.850;2023-04-30T12:47:28;9.80;;;2.95;;
3941;SDS011;1985;48.592;8.850;2023-04-30T12:49:54;11.15;;;2.95;;
3941;SDS011;1985;48.592;8.850;2023-04-30T12:52:22;8.70;;;2.22;;
3941;SDS011;1985;48.592;8.850;2023-04-30T12:54:50;9.00;;;2.50;;
3941;SDS011;1985;48.592;8.850;2023-04-30T12:57:16;10.93;;;3.40;;
3941;SDS011;1985;48.592;8.850;2023-04-30T13:02:16;8.70;;;2.13;;
3941;SDS011;1985;48.592;8.850;2023-04-30T13:04:43;9.55;;;2.50;;
3941;SDS011;1985;48.592;8.850;2023-04-30T13:07:08;9.87;;;2.50;;
3941;SDS011;1985;48.592;8.850;2023-04-30T13:09:35;9.45;;;2.80;;
3941;SDS011;1985;48.592;8.850;2023-04-30T13:12:02;12.02;;;2.90;;
3941;SDS011;1985;48.592;8.850;2023-04-30T13:14:28;9.20;;;2.20;;
3941;SDS011;1985;48.592;8.850;2023-04-30T13:16:54;10.73;;;3.38;;
3941;SDS011;1985;48.592;8.850;2023-04-30T13:19:20;10.13;;;2.87;;
3941;SDS011;1985;48.592;8.850;2023-04-30T13:21:46;9.20;;;2.40;;
3941;SDS011;1985;48.592;8.850;2023-04-30T13:24:11;9.80;;;2.70;;
3941;SDS011;1985;48.592;8.850;2023-04-30T13:26:37;10.00;;;2.83;;
3941;SDS011;1985;48.592;8.850;2023-04-30T13:29:03;10.15;;;2.45;;
3941;SDS011;1985;48.592;8.850;2023-04-30T13:31:29;9.40;;;2.40;;
3941;SDS011;1985;48.592;8.850;2023-04-30T13:33:55;11.60;;;2.50;;
3941;SDS011;1985;48.592;8.850;2023-04-30T13:36:21;9.65;;;2.50;;
3941;SDS011;1985;48.592;8.850;2023-04-30T13:38:47;11.98;;;2.70;;
3941;SDS011;1985;48.592;8.850;2023-04-30T13:41:12;9.13;;;2.40;;
3941;SDS011;1985;48.592;8.850;2023-04-30T13:43:38;10.15;;;2.33;;
3941;SDS011;1985;48.592;8.850;2023-04-30T13:46:06;9.45;;;2.67;;
3941;SDS011;1985;48.592;8.850;2023-04-30T13:48:35;9.00;;;2.50;;
3941;SDS011;1985;48.592;8.850;2023-04-30T13:51:00;9.63;;;2.50;;
3941;SDS011;1985;48.592;8.850;2023-04-30T13:53:26;10.50;;;2.57;;
3941;SDS011;1985;48.592;8.850;2023-04-30T13:55:52;8.70;;;2.00;;
3941;SDS011;1985;48.592;8.850;2023-04-30T13:58:18;9.75;;;2.47;;
3941;SDS011;1985;48.592;8.850;2023-04-30T14:00:44;9.77;;;2.60;;
3941;SDS011;1985;48.592;8.850;2023-04-30T14:03:09;11.13;;;3.33;;
3941;SDS011;1985;48.592;8.850;2023-04-30T14:05:36;11.65;;;2.60;;
3941;SDS011;1985;48.592;8.850;2023-04-30T14:08:02;10.65;;;2.70;;
3941;SDS011;1985;48.592;8.850;2023-04-30T14:10:29;9.73;;;2.70;;
3941;SDS011;1985;48.592;8.850;2023-04-30T14:12:55;9.27;;;2.60;;
3941;SDS011;1985;48.592;8.850;2023-04-30T14:15:20;9.52;;;2.33;;
3941;SDS011;1985;48.592;8.850;2023-04-30T14:17:46;10.63;;;2.43;;
3941;SDS011;1985;48.592;8.850;2023-04-30T14:20:12;11.63;;;2.63;;
3941;SDS011;1985;48.592;8.850;2023-04-30T14:22:38;11.60;;;3.10;;
3941;SDS011;1985;48.592;8.850;2023-04-30T14:25:04;10.45;;;2.70;;
3941;SDS011;1985;48.592;8.850;2023-04-30T14:27:30;10.35;;;3.10;;
3941;SDS011;1985;48.592;8.850;2023-04-30T14:29:56;10.88;;;2.97;;
3941;SDS011;1985;48.592;8.850;2023-04-30T14:32:24;15.20;;;2.80;;
3941;SDS011;1985;48.592;8.850;2023-04-30T14:34:50;8.90;;;2.40;;
3941;SDS011;1985;48.592;8.850;2023-04-30T14:37:16;10.30;;;2.60;;
3941;SDS011;1985;48.592;8.850;2023-04-30T14:39:41;10.10;;;2.70;;
3941;SDS011;1985;48.592;8.850;2023-04-30T14:42:07;9.40;;;2.47;;
3941;SDS011;1985;48.592;8.850;2023-04-30T14:44:33;9.23;;;2.33;;
3941;SDS011;1985;48.592;8.850;2023-04-30T14:46:59;11.10;;;2.88;;
3941;SDS011;1985;48.592;8.850;2023-04-30T14:49:26;9.75;;;2.58;;
3941;SDS011;1985;48.592;8.850;2023-04-30T14:51:52;8.70;;;2.30;;
3941;SDS011;1985;48.592;8.850;2023-04-30T14:54:18;12.30;;;2.40;;
3941;SDS011;1985;48.592;8.850;2023-04-30T14:56:43;9.30;;;2.50;;
3941;SDS011;1985;48.592;8.850;2023-04-30T14:59:09;10.90;;;2.55;;
3941;SDS011;1985;48.592;8.850;2023-04-30T15:01:36;9.38;;;2.40;;
3941;SDS011;1985;48.592;8.850;2023-04-30T15:04:02;10.30;;;2.60;;
3941;SDS011;1985;48.592;8.850;2023-04-30T15:06:27;9.40;;;2.70;;
3941;SDS011;1985;48.592;8.850;2023-04-30T15:08:53;10.30;;;2.73;;
3941;SDS011;1985;48.592;8.850;2023-04-30T15:11:19;9.23;;;2.15;;
3941;SDS011;1985;48.592;8.850;2023-04-30T15:13:45;9.10;;;2.22;;
3941;SDS011;1985;48.592;8.850;2023-04-30T15:16:11;10.07;;;2.20;;
3941;SDS011;1985;48.592;8.850;2023-04-30T15:18:37;9.40;;;2.33;;
3941;SDS011;1985;48.592;8.850;2023-04-30T15:21:03;10.25;;;2.60;;
3941;SDS011;1985;48.592;8.850;2023-04-30T15:23:29;9.00;;;2.40;;
3941;SDS011;1985;48.592;8.850;2023-04-30T15:25:54;9.32;;;2.60;;
3941;SDS011;1985;48.592;8.850;2023-04-30T15:28:21;10.38;;;2.72;;
3941;SDS011;1985;48.592;8.850;2023-04-30T15:30:48;9.00;;;2.13;;
3941;SDS011;1985;48.592;8.850;2023-04-30T15:33:15;8.93;;;2.37;;
3941;SDS011;1985;48.592;8.850;2023-04-30T15:35:41;9.93;;;2.53;;